Airfield :
LOGIN :

Register | Disclaimer

   EN    FR    IT 

 










Legend :    VFR   Marginal VFR   IFR   Intensive IFR   Very Intensive IFR
Visi :
Ceiling :
>= 8 km
>= 3000ft
5 to 8 km
1000 to 3000 ft
1500m to 5 km
500 to 1000 ft
800 to 1500m
200 to 500 ft
< 800m
< 200 ft
Symbols :   Thunderstorms  Fog  Heavy snow  Heavy precipitations  Wind > 20 kt
SIGMETs :     Misc.  Thunderstorms  Icing  Turbulence  Mountain Waves  Volcanic Ashes






- Airport Elevation : 499 ft
- IATA code : TLS


LFBO - Toulouse / Blagnac

CURRENT METAR :
  • 080800Z AUTO 15013KT 8000 OVC006 07/06 Q1007 BECMG NSC

EXPIRED METARs :
  • 080730Z AUTO 13007KT 100V160 8000 OVC006 07/06 Q1007 BECMG NSC
  • 080700Z AUTO 13007KT 9999 OVC007 07/05 Q1007 BECMG NSC
  • 080630Z AUTO 12007KT 9999 BKN007 OVC096 06/05 Q1008 BECMG NSC
  • 080600Z AUTO 13006KT 9999 FEW009 OVC096 06/05 Q1008 TEMPO BKN009
  • 080530Z AUTO 13007KT 9999 FEW009 OVC098 06/05 Q1008 TEMPO 0600 FG VV///

TAF AMD TAF LFBO
Valid from the 08 at 07:00 until the 09 at 12:00 UTC


080712Z 0807/0912 14008KT 9999 BKN012
TEMPO 0807/0809 BKN006
BECMG 0809/0811 13012KT CAVOK
PROB40
TEMPO 0813/0819 BKN012
PROB30
TEMPO 0815/0818 -RA BKN009
BECMG 0819/0821 16005KT BKN008
PROB40
TEMPO 0900/0903 -RA BKN005
BECMG 0904/0906 CAVOK
BECMG 0909/0911 27012KT BKN020
ATIS : +33 5 62 74 66 36



MET'MAP, your aeronautical weather chart ! - Copyright ORBIFLY December 2007 - Disclaimer

ORBIFLY MET'MAP TEAM :

Programming & Development : Alexandra Zaïnal
Original concept : Baudouin d'Aumeries
Technical & hardware support : Manuel Goepfert
Assistance : Marc-Olivier Méhu




SOURCES & CREDITS :

   NOAA